Time;durP1;ratioP1;P1;durP2;ratioP2;P2;SDS_P1;SDS_P2;PMS_P1;PMS_P2;Temp;Humidity;BMP_temperature;BMP_pressure;BME280_temperature;BME280_humidity;BME280_pressure;Samples;Min_cycle;Max_cycle;Signal;HPM_P1;HPM_P2
2023/07/20 00:02:57;;;;;;;;;11.75;9.00;;;;;28.75;40.42;100337.53;146615;577;46010;-70
2023/07/20 00:05:51;;;;;;;;;7.25;7.25;;;;;28.65;41.02;100333.41;146607;665;47013;-70
2023/07/20 00:08:49;;;;;;;;;8.00;8.00;;;;;28.63;40.98;100336.13;146617;586;46021;-73
2023/07/20 00:11:42;;;;;;;;;9.00;7.75;;;;;28.67;40.50;100339.59;146611;651;46016;-72
2023/07/20 00:14:40;;;;;;;;;8.50;7.75;;;;;28.60;40.40;100341.56;146611;565;47012;-72
2023/07/20 00:17:39;;;;;;;;;10.25;9.25;;;;;28.51;39.68;100349.81;146608;595;47014;-65
2023/07/20 00:20:31;;;;;;;;;8.50;8.50;;;;;28.46;39.53;100346.41;146616;604;47012;-71
2023/07/20 00:23:27;;;;;;;;;10.25;7.75;;;;;28.41;39.41;100338.53;146609;584;47017;-70
2023/07/20 00:26:20;;;;;;;;;10.00;8.75;;;;;28.35;39.33;100340.44;146615;617;46010;-73
2023/07/20 00:29:13;;;;;;;;;8.75;7.75;;;;;28.25;39.58;100334.50;146609;699;47013;-70
2023/07/20 00:32:06;;;;;;;;;9.25;8.75;;;;;28.18;40.16;100324.94;146616;599;46020;-70
2023/07/20 00:35:00;;;;;;;;;8.00;7.00;;;;;28.07;40.43;100328.78;146609;600;46016;-68
2023/07/20 00:37:56;;;;;;;;;7.50;7.50;;;;;27.17;40.09;100185.53;146615;633;46020;-68
2023/07/20 00:40:51;;;;;;;;;8.25;8.25;;;;;27.92;40.50;100325.66;146610;670;47016;-72
2023/07/20 00:43:52;;;;;;;;;8.25;8.25;;;;;27.81;40.58;100318.78;146616;587;46021;-69
2023/07/20 00:46:54;;;;;;;;;10.25;9.50;;;;;27.75;40.85;100320.72;146608;644;47012;-71
2023/07/20 00:49:52;;;;;;;;;9.00;8.50;;;;;27.71;40.83;100319.94;146615;564;46020;-72
2023/07/20 00:52:53;;;;;;;;;10.75;9.00;;;;;27.67;40.80;100323.59;146613;657;46016;-71
2023/07/20 00:55:49;;;;;;;;;7.00;7.00;;;;;27.63;40.51;100317.47;146618;656;47010;-69
2023/07/20 00:58:42;;;;;;;;;8.75;8.00;;;;;27.64;40.57;100310.34;146609;735;47012;-75
2023/07/20 01:01:47;;;;;;;;;8.00;8.00;;;;;27.69;40.75;100318.22;146617;577;46020;-71
2023/07/20 01:04:45;;;;;;;;;9.00;8.00;;;;;27.72;40.34;100311.00;146604;566;48012;-71
2023/07/20 01:08:09;;;;;;;;;7.75;7.75;;;;;27.15;40.62;100202.44;146614;569;46584;-71
2023/07/20 01:11:21;;;;;;;;;7.75;7.25;;;;;27.88;40.77;100311.50;146612;676;47018;-72
2023/07/20 01:14:15;;;;;;;;;12.50;8.00;;;;;27.89;40.48;100312.41;146615;684;46010;-72
2023/07/20 01:17:18;;;;;;;;;10.00;9.00;;;;;27.79;40.51;100317.12;146609;621;46917;-72
2023/07/20 01:20:16;;;;;;;;;8.25;8.25;;;;;27.70;40.99;100304.00;146616;587;46011;-72
2023/07/20 01:23:52;;;;;;;;;8.25;7.25;;;;;27.60;41.13;100298.00;146609;630;46016;-72
2023/07/20 01:27:22;;;;;;;;;10.50;9.00;;;;;27.55;41.11;100307.94;146604;670;46010;-74
2023/07/20 01:31:08;;;;;;;;;9.00;8.75;;;;;26.50;41.24;100144.56;146610;581;47016;-73
2023/07/20 01:34:06;;;;;;;;;8.33;8.33;;;;;27.34;41.70;100306.66;146617;650;46010;-75
2023/07/20 01:37:00;;;;;;;;;8.67;6.33;;;;;27.26;42.06;100298.88;146609;628;46917;-71
2023/07/20 01:39:54;;;;;;;;;8.67;8.67;;;;;27.28;42.17;100299.69;146619;593;46020;-70
2023/07/20 01:43:00;;;;;;;;;;;;;;;;;;;;;
2023/07/20 01:46:00;;;;;;;;;8.50;7.50;;;;;27.43;41.67;100311.75;146615;565;46020;-70
2023/07/20 01:48:55;;;;;;;;;10.25;10.25;;;;;27.46;41.57;100298.37;146611;708;46012;-71
2023/07/20 01:52:12;;;;;;;;;8.25;8.25;;;;;26.46;41.57;100134.88;146609;623;47020;-72
2023/07/20 01:55:12;;;;;;;;;8.25;8.25;;;;;27.39;41.11;100302.97;146611;707;46917;-70
2023/07/20 01:58:09;;;;;;;;;7.00;6.00;;;;;27.36;41.35;100305.72;146603;571;46026;-70
2023/07/20 02:01:10;;;;;;;;;10.75;10.50;;;;;27.29;41.77;100306.78;146608;629;46016;-68
2023/07/20 02:04:07;;;;;;;;;9.50;8.50;;;;;27.24;41.95;100313.12;146609;587;46020;-70
2023/07/20 02:07:02;;;;;;;;;7.67;7.00;;;;;27.22;42.28;100314.94;146610;581;46028;-71
2023/07/20 02:10:12;;;;;;;;;9.00;8.50;;;;;27.20;41.73;100315.00;146614;726;46020;-72
2023/07/20 02:13:07;;;;;;;;;11.00;8.50;;;;;27.15;41.55;100307.09;146609;704;46017;-71
2023/07/20 02:16:05;;;;;;;;;8.50;8.50;;;;;27.10;41.64;100313.41;146615;584;46012;-73
2023/07/20 02:19:04;;;;;;;;;8.00;6.75;;;;;27.05;41.79;100318.84;146610;570;46917;-72
2023/07/20 02:22:11;;;;;;;;;9.25;7.25;;;;;27.03;42.06;100306.47;146614;563;47020;-73
2023/07/20 02:25:08;;;;;;;;;11.00;8.75;;;;;27.08;42.18;100316.13;146610;573;46016;-73
2023/07/20 02:28:14;;;;;;;;;;;;;;;;;;;;;
2023/07/20 02:31:06;;;;;;;;;10.25;10.25;;;;;27.08;42.71;100324.09;146609;679;47012;-71
2023/07/20 02:34:04;;;;;;;;;8.25;8.25;;;;;26.98;43.06;100326.97;146607;572;46030;-73
2023/07/20 02:37:16;;;;;;;;;10.00;10.00;;;;;26.87;43.49;100328.09;146611;721;46012;-70
2023/07/20 02:40:15;;;;;;;;;10.25;8.75;;;;;26.80;44.09;100328.28;146611;676;46021;-72
2023/07/20 02:43:09;;;;;;;;;7.50;6.75;;;;;26.78;43.94;100328.31;146608;675;46016;-73
2023/07/20 02:46:03;;;;;;;;;11.00;10.75;;;;;26.74;44.49;100328.44;146616;580;46020;-72
2023/07/20 02:49:01;;;;;;;;;9.25;9.00;;;;;26.70;44.56;100330.28;146603;720;46016;-70
2023/07/20 02:51:57;;;;;;;;;11.00;10.00;;;;;26.69;44.45;100332.03;146615;621;47010;-69
2023/07/20 02:54:55;;;;;;;;;9.25;8.50;;;;;26.64;44.64;100328.63;146603;639;46917;-70
2023/07/20 02:57:54;;;;;;;;;10.50;9.25;;;;;26.60;44.46;100331.34;146601;686;46010;-69
2023/07/20 03:00:49;;;;;;;;;9.75;9.75;;;;;26.58;45.18;100331.41;146610;591;47012;-70
2023/07/20 03:03:47;;;;;;;;;13.00;10.50;;;;;26.54;44.93;100335.00;146612;600;47012;-70
2023/07/20 03:06:46;;;;;;;;;12.00;9.75;;;;;26.47;44.99;100331.56;146604;593;46039;-69
2023/07/20 03:09:39;;;;;;;;;10.75;9.75;;;;;26.38;45.00;100325.56;146615;631;46010;-69
2023/07/20 03:12:34;;;;;;;;;9.00;8.00;;;;;26.31;45.44;100323.94;146609;572;46016;-69
2023/07/20 03:15:37;;;;;;;;;8.25;8.25;;;;;26.28;45.32;100330.19;146605;583;46894;-69
2023/07/20 03:18:32;;;;;;;;;9.75;7.00;;;;;26.29;45.27;100339.03;146609;601;47014;-71
2023/07/20 03:21:27;;;;;;;;;9.75;9.00;;;;;26.32;45.00;100341.63;146616;582;46020;-69
2023/07/20 03:24:38;;;;;;;;;;;;;;;;;;;;;
2023/07/20 03:27:43;;;;;;;;;;;;;;;;;;;;;
2023/07/20 03:30:42;;;;;;;;;11.75;9.75;;;;;26.33;44.80;100330.12;146603;685;47012;-74
2023/07/20 03:33:39;;;;;;;;;9.50;8.75;;;;;26.37;44.27;100323.81;146616;697;46010;-77
2023/07/20 03:36:33;;;;;;;;;9.33;8.33;;;;;26.42;44.60;100329.94;146611;652;47012;-72
2023/07/20 03:39:30;;;;;;;;;10.00;9.00;;;;;26.49;43.89;100335.13;146616;633;47021;-74
2023/07/20 03:42:28;;;;;;;;;9.25;7.50;;;;;26.54;43.54;100327.03;146610;644;47014;-74
2023/07/20 03:45:23;;;;;;;;;8.00;7.50;;;;;26.60;44.34;100318.94;146615;624;47020;-71
2023/07/20 03:48:19;;;;;;;;;10.00;10.00;;;;;26.69;44.42;100321.41;146609;662;47013;-72
2023/07/20 03:51:20;;;;;;;;;9.50;9.50;;;;;26.77;44.69;100328.34;146607;574;48010;-71
2023/07/20 03:54:25;;;;;;;;;;;;;;;;;;;;;
2023/07/20 03:57:20;;;;;;;;;13.25;12.25;;;;;26.90;46.48;100333.34;146602;650;46020;-70
2023/07/20 04:00:23;;;;;;;;;16.00;13.75;;;;;27.05;46.54;100337.47;146602;668;47016;-71
2023/07/20 04:03:18;;;;;;;;;16.50;14.00;;;;;27.16;48.68;100339.91;146608;565;47020;-72
2023/07/20 04:06:19;;;;;;;;;12.00;11.00;;;;;27.27;48.96;100337.00;146606;566;46016;-71
2023/07/20 04:09:16;;;;;;;;;13.25;12.75;;;;;27.38;50.35;100340.28;146606;601;46020;-71
2023/07/20 04:12:13;;;;;;;;;12.75;12.00;;;;;27.48;49.40;100338.28;146605;622;47012;-74
2023/07/20 04:15:08;;;;;;;;;12.50;11.00;;;;;27.56;49.26;100329.19;146605;603;47010;-73
2023/07/20 04:18:02;;;;;;;;;9.25;9.25;;;;;27.74;49.12;100342.97;146604;628;47012;-73
2023/07/20 04:20:59;;;;;;;;;7.00;6.25;;;;;27.98;48.66;100338.81;146607;588;47020;-72
2023/07/20 04:23:52;;;;;;;;;10.50;9.50;;;;;28.21;48.72;100338.19;146608;577;46015;-74
2023/07/20 04:26:47;;;;;;;;;12.50;12.50;;;;;28.43;48.38;100335.81;146603;712;46020;-73
2023/07/20 04:29:39;;;;;;;;;10.25;10.25;;;;;28.63;48.43;100340.56;146605;573;46016;-73
2023/07/20 04:32:35;;;;;;;;;12.50;12.50;;;;;28.01;48.95;100216.16;146606;591;46021;-73
2023/07/20 04:35:58;;;;;;;;;11.50;10.75;;;;;28.99;46.31;100352.81;146601;685;47016;-73
2023/07/20 04:38:57;;;;;;;;;13.50;12.75;;;;;29.19;49.49;100351.34;146605;564;47010;-73
2023/07/20 04:41:52;;;;;;;;;10.50;9.25;;;;;29.35;49.98;100354.44;146601;722;47012;-72
2023/07/20 04:44:49;;;;;;;;;10.25;10.25;;;;;29.50;49.83;100345.03;146611;710;47020;-72
2023/07/20 04:47:44;;;;;;;;;13.50;12.50;;;;;29.65;50.49;100352.56;146604;679;46918;-73
2023/07/20 04:50:47;;;;;;;;;;;;;;;;;;;;;
2023/07/20 04:53:45;;;;;;;;;11.25;11.00;;;;;29.96;49.98;100352.37;146605;677;46017;-72
2023/07/20 04:56:46;;;;;;;;;12.00;11.75;;;;;29.30;50.18;100228.19;146601;570;47010;-72
2023/07/20 04:59:44;;;;;;;;;11.00;10.00;;;;;30.17;49.00;100347.22;146603;578;47016;-72
2023/07/20 05:02:36;;;;;;;;;9.75;9.00;;;;;30.28;49.11;100350.41;146609;579;46020;-73
2023/07/20 05:05:28;;;;;;;;;11.00;9.25;;;;;30.40;49.26;100347.28;146610;566;46016;-73
2023/07/20 05:08:27;;;;;;;;;11.50;9.75;;;;;30.51;47.77;100349.56;146612;606;47020;-72
2023/07/20 05:11:19;;;;;;;;;11.00;10.00;;;;;30.58;47.23;100351.09;146611;578;46012;-72
2023/07/20 05:14:23;;;;;;;;;12.75;10.75;;;;;30.66;45.76;100357.03;146603;577;47020;-69
2023/07/20 05:17:21;;;;;;;;;11.00;11.00;;;;;30.79;46.17;100358.34;146607;569;46017;-72
2023/07/20 05:20:24;;;;;;;;;12.75;11.50;;;;;30.93;46.22;100351.56;146608;609;46010;-74
2023/07/20 05:23:43;;;;;;;;;13.50;12.25;;;;;31.09;45.21;100357.19;146601;705;47012;-72
2023/07/20 05:26:54;;;;;;;;;;;;;;;;;;;;;
2023/07/20 05:29:50;;;;;;;;;10.00;10.00;;;;;31.42;44.42;100358.56;146602;634;47012;-74
2023/07/20 05:32:54;;;;;;;;;13.50;11.75;;;;;31.55;45.01;100361.59;146609;578;46020;-72
2023/07/20 05:35:59;;;;;;;;;;;;;;;;;;;;;
2023/07/20 05:38:57;;;;;;;;;15.00;14.25;;;;;31.75;43.35;100363.47;146606;583;46021;-74
2023/07/20 05:41:52;;;;;;;;;19.75;15.25;;;;;31.80;43.38;100357.91;146606;692;46016;-74
2023/07/20 05:44:48;;;;;;;;;10.00;9.25;;;;;31.85;43.95;100355.91;146607;594;46020;-73
2023/07/20 05:48:09;;;;;;;;;13.00;12.00;;;;;31.99;43.21;100356.19;146608;600;47016;-73
2023/07/20 05:51:03;;;;;;;;;13.25;13.25;;;;;32.12;42.43;100354.75;146607;618;47010;-71
2023/07/20 05:53:59;;;;;;;;;11.75;10.00;;;;;32.17;43.36;100357.22;146601;599;47017;-76
2023/07/20 05:56:55;;;;;;;;;15.50;15.50;;;;;32.24;42.59;100355.13;146601;614;46020;-75
2023/07/20 05:59:50;;;;;;;;;10.50;9.50;;;;;32.29;43.01;100353.13;146601;700;47012;-74
2023/07/20 06:02:42;;;;;;;;;13.50;12.50;;;;;32.36;42.85;100341.16;146613;578;46020;-73
2023/07/20 06:05:45;;;;;;;;;12.50;10.75;;;;;30.88;42.01;100077.84;146602;585;46917;-73
2023/07/20 06:09:02;;;;;;;;;12.25;11.25;;;;;32.58;42.72;100355.37;146605;663;47010;-72
2023/07/20 06:12:00;;;;;;;;;14.25;12.75;;;;;32.71;41.86;100358.38;146600;585;47016;-72
2023/07/20 06:15:00;;;;;;;;;11.75;10.50;;;;;32.77;41.51;100354.53;146603;624;46010;-73
2023/07/20 06:18:01;;;;;;;;;11.50;10.75;;;;;32.92;41.23;100359.16;146602;581;47012;-73
2023/07/20 06:21:03;;;;;;;;;9.00;9.00;;;;;33.09;40.39;100350.34;146606;630;46010;-74
2023/07/20 06:24:27;;;;;;;;;5.00;5.00;;;;;31.50;39.87;100060.84;146611;621;46017;-76
2023/07/20 06:27:25;;;;;;;;;13.25;10.00;;;;;33.38;39.15;100357.00;146601;577;47012;-73
2023/07/20 06:30:38;;;;;;;;;9.50;8.50;;;;;33.58;37.42;100356.00;146605;587;46016;-72
2023/07/20 06:33:43;;;;;;;;;12.00;11.50;;;;;32.15;38.74;100083.69;146613;679;46020;-71
2023/07/20 06:36:45;;;;;;;;;13.00;10.25;;;;;33.83;37.24;100350.25;146601;565;48015;-72
2023/07/20 06:39:49;;;;;;;;;13.50;11.75;;;;;33.96;37.80;100353.22;146605;568;47010;-70
2023/07/20 06:42:41;;;;;;;;;10.25;10.25;;;;;34.03;37.31;100350.16;146599;572;47016;-71
2023/07/20 06:45:38;;;;;;;;;12.50;10.75;;;;;34.10;37.68;100347.12;146608;578;46021;-72
2023/07/20 06:48:33;;;;;;;;;12.75;12.50;;;;;34.12;39.33;100339.88;146602;604;46012;-72
2023/07/20 06:51:25;;;;;;;;;14.25;13.00;;;;;34.11;39.52;100341.66;146605;590;46021;-72
2023/07/20 06:54:26;;;;;;;;;12.50;11.75;;;;;34.12;40.29;100335.34;146603;574;47016;-70
2023/07/20 06:57:22;;;;;;;;;14.00;13.75;;;;;34.17;41.05;100340.47;146601;581;46010;-71
2023/07/20 07:00:23;;;;;;;;;14.50;12.75;;;;;34.28;40.01;100340.78;146602;641;46013;-75
2023/07/20 07:03:17;;;;;;;;;12.25;12.25;;;;;34.35;38.52;100339.50;146605;569;47010;-72
2023/07/20 07:06:10;;;;;;;;;15.50;13.25;;;;;34.44;40.06;100338.13;146604;591;46016;-71
2023/07/20 07:09:14;;;;;;;;;12.00;12.00;;;;;34.49;40.50;100336.06;146606;569;46020;-72
2023/07/20 07:12:15;;;;;;;;;11.00;11.00;;;;;34.54;40.45;100339.41;146604;573;46016;-72
2023/07/20 07:15:48;;;;;;;;;10.25;9.75;;;;;33.03;38.45;100065.94;146608;570;46021;-73
2023/07/20 07:18:51;;;;;;;;;12.25;10.50;;;;;34.80;37.54;100329.00;146608;583;46016;-73
2023/07/20 07:21:48;;;;;;;;;11.25;10.00;;;;;34.91;37.89;100335.53;146608;612;46021;-72
2023/07/20 07:24:45;;;;;;;;;12.75;10.75;;;;;34.98;37.35;100330.66;146604;570;46917;-71
2023/07/20 07:27:40;;;;;;;;;8.50;8.50;;;;;35.00;34.72;100336.00;146601;606;46020;-72
2023/07/20 07:30:32;;;;;;;;;8.75;8.75;;;;;35.04;33.14;100333.06;146606;577;46017;-73
2023/07/20 07:33:28;;;;;;;;;9.00;9.00;;;;;35.02;32.55;100339.44;146611;736;47020;-71
2023/07/20 07:36:25;;;;;;;;;7.75;7.75;;;;;35.03;34.69;100335.81;146606;565;47012;-71
2023/07/20 07:39:32;;;;;;;;;9.00;9.00;;;;;35.12;34.27;100338.87;146616;591;47020;-71
2023/07/20 07:42:36;;;;;;;;;10.25;9.75;;;;;35.23;40.17;100346.34;146607;633;47016;-71
2023/07/20 07:45:39;;;;;;;;;12.00;10.75;;;;;35.23;40.51;100340.94;146609;578;46021;-70
2023/07/20 07:48:37;;;;;;;;;8.75;8.75;;;;;35.08;41.50;100349.91;146603;644;46036;-71
2023/07/20 07:51:50;;;;;;;;;11.00;9.75;;;;;33.33;41.25;100085.81;146611;597;47020;-71
2023/07/20 07:54:45;;;;;;;;;12.75;10.75;;;;;34.76;43.06;100359.75;146607;619;46016;-70
2023/07/20 07:57:40;;;;;;;;;11.25;11.00;;;;;34.70;43.62;100353.75;146602;667;46020;-71
2023/07/20 08:00:37;;;;;;;;;12.00;10.75;;;;;34.75;43.37;100358.91;146602;604;46918;-71
2023/07/20 08:03:33;;;;;;;;;12.75;11.25;;;;;34.79;42.02;100360.47;146604;614;47010;-70
2023/07/20 08:06:26;;;;;;;;;14.75;13.00;;;;;34.85;42.10;100364.66;146598;564;47012;-70
2023/07/20 08:09:29;;;;;;;;;12.00;11.00;;;;;34.93;41.63;100357.03;146604;657;47020;-71
2023/07/20 09:20:59;;;;;;;;;10.50;9.50;;;;;35.50;29.43;100324.13;146696;564;46012;-72
2023/07/20 09:24:03;;;;;;;;;9.50;9.50;;;;;35.63;29.98;100344.06;146616;654;47014;-72
2023/07/20 09:27:03;;;;;;;;;10.75;10.50;;;;;35.74;29.00;100336.22;146622;635;46010;-73
2023/07/20 09:30:03;;;;;;;;;9.75;9.75;;;;;35.91;28.91;100340.56;146604;572;47010;-71
2023/07/20 09:32:58;;;;;;;;;10.25;9.25;;;;;36.10;27.27;100337.66;146623;579;46010;-72
2023/07/20 09:35:57;;;;;;;;;9.50;8.50;;;;;36.26;27.31;100326.78;146615;619;46017;-72
2023/07/20 09:38:49;;;;;;;;;11.50;10.25;;;;;36.37;26.93;100326.13;146620;570;46010;-72
2023/07/20 09:42:08;;;;;;;;;;;;;;;;;;;;;
2023/07/20 09:45:16;;;;;;;;;7.50;7.25;;;;;36.73;31.39;100317.53;146612;633;46020;-72
2023/07/20 09:48:13;;;;;;;;;11.25;9.25;;;;;36.96;27.82;100306.09;146613;676;47016;-71
2023/07/20 09:51:29;;;;;;;;;7.25;6.25;;;;;37.16;28.42;100309.34;146622;586;46010;-72
2023/07/20 09:54:28;;;;;;;;;8.50;8.50;;;;;37.35;25.93;100320.66;146618;627;46012;-72
2023/07/20 09:57:30;;;;;;;;;8.75;8.75;;;;;37.44;27.69;100305.66;146622;633;46011;-71
2023/07/20 10:00:28;;;;;;;;;8.25;7.00;;;;;37.56;27.70;100313.00;146612;601;47012;-72
2023/07/20 10:03:26;;;;;;;;;8.50;8.50;;;;;37.70;26.15;100303.94;146619;566;46010;-72
2023/07/20 10:06:28;;;;;;;;;6.75;6.75;;;;;37.84;26.95;100311.09;146613;612;46016;-72
2023/07/20 10:09:29;;;;;;;;;9.00;8.25;;;;;37.88;26.48;100294.56;146618;618;47010;-70
2023/07/20 10:12:28;;;;;;;;;9.75;9.50;;;;;38.02;26.80;100307.16;146615;582;46016;-70
2023/07/20 10:15:35;;;;;;;;;8.75;8.75;;;;;38.09;27.71;100302.16;146620;602;46021;-71
2023/07/20 10:18:55;;;;;;;;;7.50;7.50;;;;;38.15;25.39;100304.44;146611;691;47012;-71
2023/07/20 10:22:16;;;;;;;;;8.25;7.75;;;;;38.21;27.63;100298.59;146616;598;46021;-71
2023/07/20 10:25:14;;;;;;;;;9.50;8.00;;;;;38.37;26.02;100290.22;146612;581;46016;-72
2023/07/20 10:28:12;;;;;;;;;11.00;11.00;;;;;38.47;27.13;100294.03;146616;591;45020;-70
2023/07/20 10:31:23;;;;;;;;;10.25;9.00;;;;;38.52;27.00;100288.31;146611;602;46016;-71
2023/07/20 10:34:19;;;;;;;;;9.25;8.50;;;;;38.54;27.42;100286.34;146619;565;47010;-70
2023/07/20 10:37:39;;;;;;;;;8.25;6.75;;;;;38.56;25.79;100287.94;146615;581;46016;-72
2023/07/20 10:40:46;;;;;;;;;7.00;7.00;;;;;37.79;28.02;100157.19;146615;582;47008;-70
2023/07/20 10:43:40;;;;;;;;;6.75;6.75;;;;;38.53;26.08;100281.91;146610;605;47032;-70
2023/07/20 10:46:49;;;;;;;;;9.25;7.75;;;;;37.87;25.02;100178.28;146618;593;46021;-70
2023/07/20 10:50:07;;;;;;;;;8.00;8.00;;;;;38.47;29.19;100277.78;146611;613;47016;-70
2023/07/20 10:53:22;;;;;;;;;10.00;10.00;;;;;38.47;26.66;100276.91;146618;601;46010;-71
2023/07/20 10:56:44;;;;;;;;;10.75;9.00;;;;;38.50;24.54;100274.00;146607;565;46012;-71
2023/07/20 11:00:05;;;;;;;;;8.25;8.00;;;;;38.49;28.01;100262.28;146614;593;48011;-71
2023/07/20 11:03:02;;;;;;;;;9.00;9.00;;;;;38.46;24.63;100262.53;146612;566;47016;-71
2023/07/20 11:05:55;;;;;;;;;8.50;8.00;;;;;38.36;24.15;100254.16;146620;601;47020;-72
2023/07/20 11:08:49;;;;;;;;;8.25;8.25;;;;;38.28;25.03;100245.72;146613;564;46915;-72
2023/07/20 11:11:54;;;;;;;;;10.50;10.00;;;;;38.26;24.94;100253.09;146618;577;47010;-70
2023/07/20 11:15:20;;;;;;;;;8.00;8.00;;;;;38.26;26.12;100252.25;146603;565;47012;-70
2023/07/20 11:18:16;;;;;;;;;9.00;5.75;;;;;38.17;24.25;100245.66;146620;563;46020;-71
2023/07/20 11:21:19;;;;;;;;;9.00;9.00;;;;;38.06;25.04;100242.81;146612;601;46016;-71
2023/07/20 11:24:13;;;;;;;;;9.75;9.75;;;;;38.04;24.35;100233.94;146620;569;46020;-71
2023/07/20 11:27:13;;;;;;;;;6.00;6.00;;;;;38.09;23.62;100235.34;146613;610;47017;-71
2023/07/20 11:30:08;;;;;;;;;9.00;9.00;;;;;38.12;24.82;100224.28;146621;590;46019;-71
2023/07/20 11:33:04;;;;;;;;;10.25;9.50;;;;;38.22;24.50;100229.06;146610;593;48914;-71
2023/07/20 11:35:57;;;;;;;;;11.25;10.00;;;;;38.32;24.23;100232.81;146619;610;46021;-70
2023/07/20 11:38:51;;;;;;;;;9.00;9.00;;;;;38.39;24.46;100226.03;146609;563;46016;-71
2023/07/20 11:41:53;;;;;;;;;11.00;10.75;;;;;38.52;26.50;100221.44;146617;627;47014;-71
2023/07/20 11:44:51;;;;;;;;;9.50;8.50;;;;;38.58;25.16;100223.69;146607;644;46017;-71
